| time (UTC) | temp F | wind direction | speed knots | gust knots | rain 1hr in | rain 24hr in | rain mn in | humidity % | barometer mb |
| 20260507052205 | 81 | 290 | 0.9 | 4.3 | 0.00 | 0.01 | 0.01 | 91 | 1047.3 |
| 20260507051705 | 81 | 288 | 1.7 | 5.2 | 0.00 | 0.01 | 0.01 | 91 | 1046.2 |
| 20260507051204 | 81 | 282 | 0.9 | 4.3 | 0.00 | 0.01 | 0.01 | 90 | 1044.0 |
| 20260507050705 | 81 | 244 | 0.9 | 6.1 | 0.00 | 0.01 | 0.01 | 90 | 1044.7 |
| 20260507050204 | 81 | 266 | 0.0 | 1.7 | 0.00 | 0.02 | 0.01 | 90 | 1043.9 |
| 20260507045704 | 81 | 273 | 0.9 | 5.2 | 0.00 | 0.01 | 0.01 | 90 | 1042.5 |
| 20260507045205 | 81 | 247 | 0.0 | 2.6 | 0.00 | 0.01 | 0.01 | 89 | 1042.3 |
| 20260507044705 | 81 | 258 | 0.9 | 4.3 | 0.00 | 0.01 | 0.01 | 90 | 1043.3 |
| 20260507044205 | 81 | 275 | 1.7 | 5.2 | 0.00 | 0.01 | 0.01 | 90 | 1043.7 |
| 20260507043205 | 81 | 295 | 0.9 | 6.1 | 0.00 | 0.01 | 0.01 | 89 | 1042.2 |
| 20260507042705 | 81 | 353 | 0.9 | 4.3 | 0.00 | 0.01 | 0.01 | 90 | 1042.4 |
| 20260507042204 | 81 | 281 | 0.9 | 2.6 | 0.00 | 0.01 | 0.01 | 90 | 1043.0 |
| 20260507041705 | 81 | 277 | 1.7 | 6.1 | 0.00 | 0.01 | 0.01 | 89 | 1041.3 |
| 20260507041205 | 81 | 253 | 0.9 | 5.2 | 0.00 | 0.01 | 0.01 | 89 | 1041.7 |
| 20260507040704 | 81 | 279 | 0.9 | 5.2 | 0.00 | 0.01 | 0.01 | 89 | 1041.9 |
| 20260507040205 | 81 | 222 | 0.9 | 6.1 | 0.00 | 0.01 | 0.01 | 89 | 1041.3 |
| 20260507035704 | 81 | 300 | 2.6 | 6.1 | 0.00 | 0.01 | 0.01 | 89 | 1039.1 |
| 20260507035205 | 81 | 121 | 1.7 | 7.0 | 0.00 | 0.01 | 0.01 | 89 | 1039.5 |
| 20260507034705 | 82 | 278 | 0.9 | 7.0 | 0.00 | 0.01 | 0.01 | 88 | 1038.2 |
| 20260507034205 | 82 | 248 | 0.9 | 4.3 | 0.00 | 0.01 | 0.01 | 89 | 1038.5 |
| 20260507033705 | 82 | 262 | 0.9 | 6.1 | 0.00 | 0.01 | 0.01 | 88 | 1036.1 |
| 20260507033205 | 82 | 275 | 1.7 | 6.1 | 0.00 | 0.01 | 0.01 | 88 | 1037.5 |
| 20260507032705 | 82 | 260 | 0.9 | 5.2 | 0.00 | 0.01 | 0.01 | 89 | 1038.5 |
| 20260507032205 | 82 | 105 | 0.9 | 2.6 | 0.00 | 0.01 | 0.01 | 88 | 1037.4 |
| 20260507031204 | 82 | 294 | 0.9 | 4.3 | 0.00 | 0.01 | 0.01 | 88 | 1035.6 |
| 20260507030706 | 82 | 131 | 0.9 | 4.3 | 0.00 | 0.01 | 0.01 | 88 | 1035.3 |
| 20260507030205 | 82 | 124 | 0.0 | 2.6 | 0.00 | 0.01 | 0.01 | 87 | 1033.1 |
| 20260507025705 | 82 | 223 | 1.7 | 7.0 | 0.00 | 0.01 | 0.01 | 87 | 1033.4 |
| 20260507025204 | 82 | 266 | 0.0 | 5.2 | 0.00 | 0.01 | 0.01 | 87 | 1032.9 |
| 20260507024705 | 82 | 189 | 1.7 | 6.1 | 0.00 | 0.01 | 0.01 | 87 | 1033.1 |
| 20260507023705 | 82 | 267 | 1.7 | 7.0 | 0.00 | 0.01 | 0.01 | 86 | 1031.5 |
| 20260507023206 | 82 | 257 | 0.9 | 2.6 | 0.00 | 0.01 | 0.01 | 87 | 1032.4 |
| 20260507022705 | 83 | 283 | 0.9 | 5.2 | 0.00 | 0.01 | 0.01 | 86 | 1029.8 |
| 20260507022205 | 83 | 115 | 0.9 | 2.6 | 0.00 | 0.01 | 0.01 | 86 | 1029.1 |
| 20260507021705 | 83 | 222 | 0.9 | 5.2 | 0.00 | 0.01 | 0.01 | 86 | 1030.0 |
| 20260507021204 | 83 | 128 | 2.6 | 6.1 | 0.00 | 0.01 | 0.01 | 87 | 1031.8 |
| 20260507020704 | 83 | 270 | 0.9 | 4.3 | 0.00 | 0.01 | 0.01 | 86 | 1030.1 |
| 20260507015705 | 83 | 223 | 1.7 | 7.8 | 0.00 | 0.01 | 0.01 | 86 | 1029.0 |
| 20260507015205 | 83 | 138 | 0.9 | 4.3 | 0.00 | 0.01 | 0.01 | 86 | 1029.3 |
| 20260507014704 | 83 | 248 | 0.0 | 4.3 | 0.00 | 0.01 | 0.01 | 86 | 1028.6 |
| 20260507014205 | 83 | 278 | 1.7 | 6.1 | 0.00 | 0.01 | 0.01 | 86 | 1027.5 |
| 20260507013704 | 83 | 197 | 0.9 | 4.3 | 0.00 | 0.01 | 0.01 | 86 | 1028.0 |
| 20260507013205 | 83 | 275 | 1.7 | 6.1 | 0.00 | 0.01 | 0.01 | 86 | 1028.3 |
| 20260507012706 | 83 | 295 | 1.7 | 6.1 | 0.00 | 0.01 | 0.01 | 86 | 1027.0 |
| 20260507012204 | 83 | 120 | 0.9 | 4.3 | 0.00 | 0.01 | 0.01 | 85 | 1026.0 |
| 20260507011706 | 83 | 186 | 0.9 | 5.2 | 0.00 | 0.01 | 0.01 | 85 | 1025.3 |
| 20260507010705 | 83 | 35 | 1.7 | 7.0 | 0.00 | 0.01 | 0.01 | 84 | 1022.4 |
| 20260507005705 | 84 | 233 | 0.9 | 5.2 | 0.00 | 0.01 | 0.01 | 84 | 1021.8 |
| 20260507005204 | 84 | 240 | 0.9 | 5.2 | 0.00 | 0.01 | 0.01 | 83 | 1021.1 |
| 20260507004704 | 84 | 266 | 0.9 | 6.1 | 0.00 | 0.01 | 0.01 | 82 | 1019.2 |
| 20260507004204 | 84 | 221 | 0.9 | 4.3 | 0.00 | 0.01 | 0.01 | 82 | 1018.7 |
| 20260507003704 | 84 | 239 | 0.9 | 5.2 | 0.00 | 0.01 | 0.01 | 82 | 1018.9 |
| 20260507003205 | 85 | 268 | 0.9 | 6.1 | 0.00 | 0.01 | 0.01 | 81 | 1018.0 |
| 20260507002705 | 85 | 284 | 0.9 | 6.1 | 0.00 | 0.01 | 0.01 | 81 | 1018.0 |
| 20260507002204 | 85 | 181 | 0.9 | 4.3 | 0.00 | 0.01 | 0.01 | 81 | 1018.2 |
| 20260507001704 | 85 | 248 | 0.9 | 2.6 | 0.00 | 0.01 | 0.01 | 81 | 1017.4 |
| 20260507001205 | 85 | 248 | 0.0 | 0.0 | 0.00 | 0.01 | 0.01 | 80 | 1016.5 |
| 20260507000704 | 85 | 247 | 0.9 | 6.1 | 0.00 | 0.01 | 0.01 | 80 | 1016.5 |
| 20260507000205 | 85 | 234 | 0.9 | 7.8 | 0.00 | 0.01 | 0.01 | 81 | 1016.8 |
| 20260506235704 | 85 | 144 | 0.9 | 5.2 | 0.00 | 0.01 | 0.01 | 79 | 1015.9 |
| 20260506234705 | 85 | 283 | 0.9 | 4.3 | 0.00 | 0.01 | 0.01 | 79 | 1015.6 |
| 20260506234205 | 85 | 105 | 0.9 | 5.2 | 0.00 | 0.01 | 0.01 | 79 | 1015.4 |
| 20260506233705 | 85 | 255 | 1.7 | 5.2 | 0.00 | 0.01 | 0.01 | 79 | 1015.5 |
| 20260506233205 | 85 | 151 | 0.0 | 1.7 | 0.00 | 0.01 | 0.01 | 80 | 1015.7 |
| 20260506232705 | 85 | 298 | 2.6 | 6.1 | 0.00 | 0.01 | 0.01 | 80 | 1015.9 |
| 20260506232205 | 85 | 249 | 0.9 | 7.8 | 0.00 | 0.01 | 0.01 | 79 | 1015.6 |
| 20260506230704 | 85 | 100 | 1.7 | 7.0 | 0.00 | 0.01 | 0.01 | 80 | 1016.0 |
| 20260506230205 | 86 | 287 | 0.9 | 5.2 | 0.00 | 0.01 | 0.01 | 80 | 1015.6 |
| 20260506225704 | 86 | 273 | 0.9 | 7.0 | 0.00 | 0.01 | 0.01 | 80 | 1015.7 |
| 20260506225205 | 86 | 303 | 1.7 | 7.0 | 0.00 | 0.01 | 0.01 | 80 | 1015.9 |
| 20260506224705 | 86 | 134 | 2.6 | 7.0 | 0.00 | 0.01 | 0.01 | 80 | 1015.3 |
| 20260506224205 | 86 | 281 | 0.9 | 2.6 | 0.00 | 0.01 | 0.01 | 80 | 1015.8 |
| 20260506223705 | 87 | 181 | 1.7 | 7.0 | 0.00 | 0.01 | 0.01 | 79 | 1015.3 |
| 20260506223204 | 87 | 146 | 2.6 | 7.0 | 0.00 | 0.01 | 0.01 | 76 | 1013.7 |
| 20260506222704 | 88 | 103 | 1.7 | 6.1 | 0.00 | 0.01 | 0.01 | 75 | 1013.1 |
| 20260506222204 | 87 | 237 | 0.9 | 6.1 | 0.00 | 0.01 | 0.01 | 75 | 1013.6 |
| 20260506221205 | 87 | 255 | 0.9 | 7.8 | 0.00 | 0.01 | 0.01 | 77 | 1014.4 |
| 20260506220705 | 87 | 222 | 1.7 | 8.7 | 0.00 | 0.01 | 0.01 | 77 | 1014.3 |
| 20260506220204 | 87 | 97 | 0.9 | 2.6 | 0.00 | 0.01 | 0.01 | 78 | 1015.0 |
| 20260506215704 | 87 | 236 | 0.9 | 5.2 | 0.00 | 0.01 | 0.01 | 79 | 1015.6 |
| 20260506215204 | 86 | 102 | 0.9 | 6.1 | 0.00 | 0.01 | 0.01 | 79 | 1015.6 |
| 20260506214705 | 87 | 89 | 1.7 | 6.1 | 0.00 | 0.01 | 0.01 | 79 | 1016.0 |
| 20260506214204 | 87 | 182 | 0.9 | 4.3 | 0.00 | 0.01 | 0.01 | 78 | 1015.4 |
| 20260506213704 | 87 | 176 | 0.9 | 2.6 | 0.00 | 0.01 | 0.01 | 77 | 1014.7 |
| 20260506213204 | 87 | 307 | 0.9 | 2.6 | 0.00 | 0.01 | 0.01 | 76 | 1014.8 |
| 20260506212705 | 87 | 90 | 0.9 | 2.6 | 0.00 | 0.01 | 0.01 | 76 | 1014.7 |
| 20260506212204 | 87 | 317 | 1.7 | 6.1 | 0.00 | 0.01 | 0.01 | 76 | 1014.5 |
| 20260506211705 | 87 | 123 | 1.7 | 7.0 | 0.00 | 0.01 | 0.01 | 77 | 1014.8 |
| 20260506211205 | 87 | 267 | 0.9 | 4.3 | 0.00 | 0.01 | 0.01 | 77 | 1015.4 |
| 20260506210704 | 87 | 246 | 0.0 | 1.7 | 0.00 | 0.01 | 0.01 | 77 | 1015.3 |
| 20260506210204 | 87 | 257 | 0.0 | 4.3 | 0.00 | 0.01 | 0.01 | 77 | 1015.7 |
| 20260506205704 | 88 | 204 | 1.7 | 5.2 | 0.00 | 0.01 | 0.01 | 76 | 1015.3 |
| 20260506205204 | 88 | 108 | 0.0 | 6.1 | 0.00 | 0.01 | 0.01 | 76 | 1014.9 |
| 20260506204705 | 88 | 196 | 0.0 | 5.2 | 0.00 | 0.01 | 0.01 | 75 | 1014.7 |
| 20260506204204 | 88 | 84 | 1.7 | 5.2 | 0.00 | 0.01 | 0.01 | 75 | 1014.8 |
| 20260506203705 | 88 | 279 | 1.7 | 4.3 | 0.00 | 0.01 | 0.01 | 75 | 1014.7 |
| 20260506203204 | 89 | 298 | 0.9 | 7.0 | 0.00 | 0.01 | 0.01 | 75 | 1014.7 |
| 20260506202704 | 89 | 238 | 0.9 | 7.0 | 0.00 | 0.01 | 0.01 | 75 | 1014.6 |
| 20260506202204 | 88 | 130 | 0.9 | 5.2 | 0.00 | 0.01 | 0.01 | 74 | 1014.5 |
| 20260506201704 | 88 | 112 | 0.9 | 5.2 | 0.00 | 0.01 | 0.01 | 75 | 1015.0 |
| 20260506201205 | 89 | 272 | 2.6 | 7.0 | 0.00 | 0.01 | 0.01 | 74 | 1014.4 |
| 20260506200704 | 89 | 154 | 0.9 | 6.1 | 0.00 | 0.01 | 0.01 | 74 | 1014.5 |
| 20260506200204 | 89 | 120 | 1.7 | 5.2 | 0.00 | 0.01 | 0.01 | 73 | 1013.7 |
| 20260506195704 | 89 | 182 | 1.7 | 6.1 | 0.00 | 0.01 | 0.01 | 72 | 1013.6 |
| 20260506195204 | 89 | 107 | 0.0 | 5.2 | 0.00 | 0.01 | 0.01 | 72 | 1014.0 |
| 20260506194204 | 88 | 237 | 0.9 | 7.0 | 0.00 | 0.01 | 0.01 | 75 | 1015.3 |
| 20260506193704 | 88 | 272 | 1.7 | 7.0 | 0.00 | 0.01 | 0.01 | 76 | 1015.3 |
| 20260506193205 | 88 | 286 | 1.7 | 7.0 | 0.00 | 0.01 | 0.01 | 75 | 1015.4 |
| 20260506192704 | 88 | 305 | 2.6 | 6.1 | 0.00 | 0.01 | 0.01 | 74 | 1015.0 |
| 20260506191704 | 87 | 34 | 2.6 | 7.0 | 0.00 | 0.01 | 0.01 | 76 | 1016.6 |
| 20260506190704 | 87 | 106 | 1.7 | 7.0 | 0.00 | 0.01 | 0.01 | 76 | 1016.6 |
| 20260506190204 | 88 | 269 | 3.5 | 10.4 | 0.00 | 0.01 | 0.01 | 75 | 1016.2 |
| 20260506185705 | 88 | 123 | 0.9 | 6.1 | 0.00 | 0.01 | 0.01 | 74 | 1016.0 |
| 20260506185205 | 88 | 180 | 0.9 | 6.1 | 0.00 | 0.01 | 0.01 | 74 | 1015.7 |
| 20260506184705 | 88 | 180 | 0.9 | 4.3 | 0.00 | 0.01 | 0.01 | 74 | 1015.2 |
| 20260506184204 | 88 | 152 | 1.7 | 4.3 | 0.00 | 0.01 | 0.01 | 74 | 1015.9 |
| 20260506183704 | 87 | 254 | 1.7 | 4.3 | 0.00 | 0.01 | 0.01 | 76 | 1016.5 |
| 20260506183204 | 87 | 272 | 1.7 | 5.2 | 0.00 | 0.01 | 0.01 | 75 | 1016.3 |
| 20260506182705 | 87 | 93 | 1.7 | 7.8 | 0.00 | 0.01 | 0.01 | 74 | 1016.1 |
| 20260506182206 | 87 | 115 | 0.9 | 6.1 | 0.00 | 0.01 | 0.01 | 75 | 1016.3 |
| 20260506181705 | 87 | 260 | 0.9 | 4.3 | 0.00 | 0.01 | 0.01 | 75 | 1016.0 |
| 20260506180705 | 86 | 289 | 1.7 | 6.1 | 0.00 | 0.01 | 0.01 | 79 | 1017.7 |
| 20260506180205 | 87 | 241 | 1.7 | 5.2 | 0.00 | 0.01 | 0.01 | 77 | 1017.1 |
| 20260506175206 | 87 | 247 | 0.9 | 5.2 | 0.00 | 0.01 | 0.01 | 77 | 1017.1 |
| 20260506174705 | 87 | 262 | 0.9 | 5.2 | 0.00 | 0.01 | 0.01 | 77 | 1017.2 |
| 20260506174205 | 86 | 219 | 1.7 | 5.2 | 0.00 | 0.01 | 0.01 | 78 | 1018.1 |
| 20260506173706 | 85 | 99 | 0.9 | 2.6 | 0.00 | 0.01 | 0.01 | 79 | 1018.5 |
| 20260506172706 | 85 | 118 | 1.7 | 4.3 | 0.00 | 0.01 | 0.01 | 79 | 1018.9 |
| 20260506172206 | 85 | 234 | 0.9 | 5.2 | 0.00 | 0.01 | 0.01 | 81 | 1019.7 |
| 20260506171705 | 84 | 205 | 0.9 | 5.2 | 0.00 | 0.01 | 0.01 | 81 | 1020.2 |
| 20260506170205 | 84 | 251 | 0.9 | 7.8 | 0.00 | 0.01 | 0.01 | 81 | 1020.5 |
| 20260506165705 | 84 | 130 | 0.9 | 2.6 | 0.00 | 0.01 | 0.01 | 81 | 1020.7 |
| 20260506165206 | 84 | 255 | 1.7 | 7.0 | 0.00 | 0.01 | 0.01 | 83 | 1021.9 |
| 20260506164706 | 84 | 251 | 0.9 | 4.3 | 0.00 | 0.01 | 0.01 | 83 | 1022.0 |
| 20260506164206 | 84 | 288 | 0.9 | 4.3 | 0.00 | 0.01 | 0.01 | 82 | 1020.7 |
| 20260506163705 | 84 | 247 | 1.7 | 7.0 | 0.00 | 0.01 | 0.01 | 82 | 1020.6 |
| 20260506163206 | 83 | 279 | 0.9 | 4.3 | 0.00 | 0.01 | 0.01 | 82 | 1021.6 |
| 20260506162705 | 83 | 291 | 0.9 | 7.0 | 0.00 | 0.01 | 0.01 | 84 | 1023.9 |
| 20260506162205 | 84 | 238 | 1.7 | 5.2 | 0.00 | 0.01 | 0.01 | 84 | 1023.5 |
| 20260506161705 | 84 | 245 | 0.9 | 5.2 | 0.00 | 0.01 | 0.01 | 82 | 1020.9 |
| 20260506160705 | 83 | 270 | 0.9 | 4.3 | 0.00 | 0.01 | 0.01 | 83 | 1023.2 |
| 20260506155205 | 83 | 247 | 1.7 | 4.3 | 0.00 | 0.01 | 0.01 | 84 | 1024.3 |
| 20260506154705 | 82 | 128 | 0.0 | 2.6 | 0.00 | 0.01 | 0.01 | 85 | 1027.1 |
| 20260506154205 | 82 | 117 | 0.9 | 2.6 | 0.00 | 0.01 | 0.01 | 85 | 1028.5 |
| 20260506153205 | 82 | 277 | 0.9 | 6.1 | 0.00 | 0.01 | 0.01 | 86 | 1030.4 |
| 20260506152705 | 82 | 173 | 1.7 | 5.2 | 0.00 | 0.01 | 0.01 | 87 | 1032.2 |
| 20260506152205 | 81 | 104 | 0.9 | 4.3 | 0.00 | 0.01 | 0.01 | 88 | 1035.4 |
| 20260506151705 | 81 | 279 | 0.9 | 4.3 | 0.00 | 0.01 | 0.01 | 88 | 1036.7 |
| 20260506151205 | 81 | 101 | 0.9 | 4.3 | 0.00 | 0.01 | 0.01 | 89 | 1039.9 |
| 20260506150705 | 80 | 286 | 0.0 | 2.6 | 0.00 | 0.01 | 0.01 | 90 | 1042.2 |
| 20260506150205 | 80 | 241 | 0.9 | 2.6 | 0.00 | 0.01 | 0.01 | 90 | 1044.1 |
| 20260506145705 | 80 | 291 | 0.0 | 2.6 | 0.00 | 0.01 | 0.01 | 90 | 1045.9 |
| 20260506145205 | 80 | 279 | 0.9 | 2.6 | 0.00 | 0.01 | 0.01 | 91 | 1046.8 |
| 20260506144706 | 80 | 258 | 0.9 | 4.3 | 0.00 | 0.01 | 0.01 | 91 | 1047.2 |
| 20260506144206 | 79 | 291 | 0.9 | 5.2 | 0.00 | 0.01 | 0.01 | 91 | 1048.6 |
| 20260506143705 | 79 | 255 | 0.9 | 4.3 | 0.00 | 0.01 | 0.01 | 92 | 1050.7 |
| 20260506143204 | 79 | 282 | 1.7 | 4.3 | 0.00 | 0.01 | 0.01 | 92 | 1051.4 |
| 20260506142705 | 79 | 272 | 0.0 | 2.6 | 0.00 | 0.01 | 0.01 | 93 | 1053.0 |
| 20260506142205 | 78 | 269 | 0.0 | 0.0 | 0.00 | 0.01 | 0.01 | 93 | 1053.1 |
| 20260506141705 | 78 | 194 | 0.0 | 1.7 | 0.00 | 0.01 | 0.01 | 93 | 1053.4 |
| 20260506141205 | 78 | 126 | 0.0 | 0.0 | 0.00 | 0.01 | 0.01 | 93 | 1054.5 |
| 20260506140705 | 78 | 126 | 0.0 | 0.0 | 0.00 | 0.01 | 0.01 | 94 | 1054.9 |
| 20260506140205 | 77 | 126 | 0.0 | 1.7 | 0.00 | 0.01 | 0.01 | 94 | 1055.2 |
| 20260506135705 | 77 | 116 | 0.0 | 1.7 | 0.00 | 0.01 | 0.01 | 94 | 1055.4 |
| 20260506135205 | 77 | 109 | 0.0 | 0.0 | 0.00 | 0.01 | 0.01 | 94 | 1055.9 |
| 20260506134705 | 77 | 109 | 0.0 | 0.9 | 0.00 | 0.01 | 0.01 | 94 | 1055.8 |
| 20260506134205 | 77 | 141 | 0.0 | 0.0 | 0.00 | 0.01 | 0.01 | 94 | 1056.0 |
| 20260506133705 | 77 | 141 | 0.0 | 0.0 | 0.00 | 0.01 | 0.01 | 94 | 1056.2 |
| 20260506132706 | 76 | 141 | 0.0 | 0.9 | 0.00 | 0.01 | 0.01 | 94 | 1056.1 |
| 20260506131705 | 76 | 248 | 0.0 | 0.0 | 0.00 | 0.01 | 0.01 | 94 | 1056.4 |
| 20260506131205 | 76 | 248 | 0.0 | 0.0 | 0.00 | 0.01 | 0.01 | 94 | 1056.6 |
| 20260506130205 | 76 | 248 | 0.0 | 0.0 | 0.00 | 0.01 | 0.01 | 95 | 1057.0 |
| 20260506125705 | 76 | 248 | 0.0 | 0.0 | 0.00 | 0.01 | 0.01 | 95 | 1056.9 |
| 20260506125205 | 76 | 248 | 0.0 | 0.0 | 0.00 | 0.01 | 0.01 | 95 | 1057.0 |
| 20260506124705 | 76 | 248 | 0.0 | 0.0 | 0.00 | 0.01 | 0.01 | 95 | 1057.1 |
| 20260506124204 | 76 | 248 | 0.0 | 0.0 | 0.00 | 0.01 | 0.01 | 95 | 1057.2 |
| 20260506123205 | 75 | 313 | 0.0 | 2.6 | 0.00 | 0.01 | 0.01 | 95 | 1057.2 |
| 20260506122205 | 75 | 116 | 0.0 | 1.7 | 0.00 | 0.01 | 0.01 | 95 | 1057.1 |
| 20260506121705 | 75 | 98 | 0.0 | 0.0 | 0.00 | 0.01 | 0.01 | 95 | 1057.7 |
| 20260506121205 | 75 | 98 | 0.0 | 0.0 | 0.00 | 0.01 | 0.01 | 95 | 1057.7 |
| 20260506120706 | 75 | 99 | 0.0 | 2.6 | 0.00 | 0.01 | 0.01 | 95 | 1057.8 |
| 20260506115705 | 75 | 97 | 0.0 | 0.0 | 0.00 | 0.01 | 0.01 | 95 | 1057.5 |
| 20260506115205 | 74 | 97 | 0.0 | 1.7 | 0.00 | 0.01 | 0.01 | 95 | 1057.5 |
| 20260506114705 | 74 | 270 | 0.0 | 0.0 | 0.00 | 0.01 | 0.01 | 95 | 1057.4 |
| 20260506114205 | 74 | 112 | 0.0 | 0.0 | 0.00 | 0.01 | 0.01 | 96 | 1057.6 |
| 20260506113207 | 74 | 112 | 0.0 | 0.0 | 0.00 | 0.01 | 0.01 | 96 | 1057.6 |
| 20260506112707 | 74 | 112 | 0.9 | 2.6 | 0.00 | 0.01 | 0.01 | 96 | 1057.0 |
| 20260506112205 | 74 | 115 | 0.9 | 2.6 | 0.00 | 0.01 | 0.01 | 96 | 1057.6 |
| 20260506111706 | 74 | 112 | 0.0 | 2.6 | 0.00 | 0.01 | 0.01 | 96 | 1057.8 |
| 20260506110705 | 74 | 108 | 0.0 | 2.6 | 0.00 | 0.01 | 0.01 | 96 | 1058.1 |
| 20260506110205 | 74 | 116 | 0.0 | 2.6 | 0.00 | 0.01 | 0.01 | 96 | 1058.3 |
| 20260506105707 | 74 | 340 | 0.0 | 2.6 | 0.00 | 0.01 | 0.01 | 96 | 1058.6 |
| 20260506105205 | 74 | 124 | 0.0 | 0.9 | 0.00 | 0.01 | 0.01 | 96 | 1058.5 |
| 20260506104705 | 74 | 113 | 0.0 | 0.0 | 0.00 | 0.01 | 0.01 | 96 | 1058.3 |
| 20260506104205 | 74 | 113 | 0.0 | 1.7 | 0.00 | 0.01 | 0.01 | 96 | 1058.2 |
| 20260506103705 | 74 | 347 | 0.0 | 0.0 | 0.00 | 0.01 | 0.01 | 96 | 1058.3 |
| 20260506103205 | 74 | 347 | 0.0 | 0.9 | 0.00 | 0.01 | 0.01 | 96 | 1058.3 |
| 20260506102706 | 74 | 14 | 0.0 | 0.9 | 0.00 | 0.01 | 0.01 | 96 | 1058.3 |
| 20260506102206 | 74 | 104 | 0.0 | 0.0 | 0.00 | 0.01 | 0.01 | 96 | 1058.1 |
| 20260506101704 | 74 | 104 | 0.0 | 0.0 | 0.00 | 0.01 | 0.01 | 96 | 1058.1 |
| 20260506101206 | 74 | 104 | 0.0 | 0.0 | 0.00 | 0.01 | 0.01 | 96 | 1058.0 |
| 20260506100706 | 74 | 136 | 0.0 | 2.6 | 0.00 | 0.01 | 0.01 | 96 | 1057.8 |
| 20260506100205 | 74 | 157 | 0.0 | 1.7 | 0.00 | 0.01 | 0.01 | 96 | 1057.8 |
| 20260506095705 | 74 | 111 | 0.9 | 1.7 | 0.00 | 0.01 | 0.01 | 96 | 1058.1 |
| 20260506095205 | 74 | 89 | 0.0 | 0.0 | 0.00 | 0.01 | 0.01 | 96 | 1058.6 |
| 20260506094707 | 74 | 118 | 0.0 | 0.0 | 0.00 | 0.01 | 0.01 | 96 | 1058.5 |
| 20260506094205 | 74 | 118 | 0.0 | 2.6 | 0.00 | 0.01 | 0.01 | 96 | 1057.7 |
| 20260506093205 | 73 | 111 | 0.0 | 1.7 | 0.00 | 0.01 | 0.01 | 96 | 1058.4 |
| 20260506092705 | 73 | 96 | 0.0 | 0.9 | 0.00 | 0.01 | 0.01 | 96 | 1058.2 |
| 20260506092205 | 73 | 301 | 0.0 | 2.6 | 0.00 | 0.01 | 0.01 | 96 | 1058.2 |
| 20260506091206 | 73 | 115 | 0.0 | 0.0 | 0.00 | 0.01 | 0.01 | 96 | 1057.4 |
| 20260506090205 | 73 | 109 | 0.0 | 0.9 | 0.00 | 0.01 | 0.01 | 96 | 1057.1 |
| 20260506085704 | 73 | 102 | 0.0 | 0.0 | 0.00 | 0.01 | 0.01 | 96 | 1057.0 |
| 20260506085205 | 73 | 102 | 0.0 | 1.7 | 0.00 | 0.01 | 0.01 | 96 | 1056.5 |
| 20260506084705 | 73 | 118 | 0.0 | 0.0 | 0.00 | 0.01 | 0.01 | 96 | 1056.8 |
| 20260506083705 | 73 | 116 | 0.9 | 2.6 | 0.00 | 0.01 | 0.01 | 95 | 1056.4 |
| 20260506083205 | 73 | 70 | 0.0 | 1.7 | 0.00 | 0.01 | 0.01 | 95 | 1056.5 |
| 20260506082205 | 73 | 112 | 0.0 | 0.0 | 0.00 | 0.01 | 0.01 | 95 | 1055.9 |
| 20260506081705 | 73 | 112 | 0.0 | 0.0 | 0.00 | 0.01 | 0.01 | 95 | 1055.7 |
| 20260506081205 | 73 | 112 | 0.0 | 1.7 | 0.00 | 0.01 | 0.01 | 95 | 1055.1 |
| 20260506080705 | 74 | 112 | 0.0 | 0.9 | 0.00 | 0.01 | 0.01 | 94 | 1054.6 |
| 20260506080205 | 74 | 119 | 0.0 | 0.0 | 0.00 | 0.01 | 0.01 | 94 | 1054.6 |
| 20260506073205 | 74 | 111 | 0.0 | 1.7 | 0.00 | 0.01 | 0.01 | 94 | 1054.0 |
| 20260506072705 | 74 | 111 | 0.0 | 0.0 | 0.00 | 0.01 | 0.01 | 94 | 1054.3 |
| 20260506071704 | 74 | 116 | 0.0 | 1.7 | 0.00 | 0.01 | 0.01 | 94 | 1054.3 |
| 20260506071205 | 74 | 118 | 0.0 | 1.7 | 0.00 | 0.01 | 0.01 | 94 | 1054.2 |
| 20260506070705 | 74 | 95 | 0.0 | 0.9 | 0.00 | 0.01 | 0.01 | 94 | 1054.5 |
| 20260506070205 | 74 | 264 | 1.7 | 2.6 | 0.00 | 0.01 | 0.01 | 94 | 1054.5 |
| 20260506062205 | 74 | 115 | 0.0 | 1.7 | 0.00 | 0.01 | 0.01 | 94 | 1052.2 |
| 20260506061705 | 74 | 110 | 0.9 | 2.6 | 0.00 | 0.01 | 0.01 | 94 | 1051.9 |
| 20260506060204 | 74 | 60 | 0.0 | 2.6 | 0.00 | 0.01 | 0.01 | 94 | 1053.3 |